Time;durP1;ratioP1;P1;durP2;ratioP2;P2;SDS_P1;SDS_P2;PMS_P1;PMS_P2;Temp;Humidity;BMP_temperature;BMP_pressure;BME280_temperature;BME280_humidity;BME280_pressure;Samples;Min_cycle;Max_cycle;Signal;HPM_P1;HPM_P2
2021/03/10 00:01:26;;;;;;;78.50;29.32;;;;;;;-7.96;72.10;101412.87;1844083;77;21446;-49
2021/03/10 00:03:54;;;;;;;82.37;29.87;;;;;;;-7.98;72.11;101417.13;1841940;77;21588;-49
2021/03/10 00:06:22;;;;;;;84.03;31.07;;;;;;;-8.02;72.47;101418.78;1841401;77;21179;-49
2021/03/10 00:08:50;;;;;;;73.70;29.30;;;;;;;-8.04;72.63;101419.19;1841042;77;21161;-49
2021/03/10 00:11:18;;;;;;;77.05;30.92;;;;;;;-8.06;72.71;101411.89;1835848;77;21144;-49
2021/03/10 00:13:46;;;;;;;71.67;29.70;;;;;;;-8.11;72.86;101410.56;1831031;77;21144;-49
2021/03/10 00:16:14;;;;;;;79.60;31.12;;;;;;;-8.12;73.10;101406.27;1838757;77;21185;-49
2021/03/10 00:18:43;;;;;;;85.03;31.70;;;;;;;-8.12;73.38;101407.55;1789347;78;21854;-49
2021/03/10 00:21:10;;;;;;;87.25;34.35;;;;;;;-8.12;73.65;101409.25;1771661;80;21643;-49
2021/03/10 00:23:38;;;;;;;92.30;35.17;;;;;;;-8.12;73.87;101410.53;1759546;80;21779;-49
2021/03/10 00:26:06;;;;;;;112.90;42.88;;;;;;;-8.13;73.92;101404.95;1754148;80;21456;-49
2021/03/10 00:28:34;;;;;;;122.72;43.35;;;;;;;-8.10;73.85;101401.13;1808342;78;21196;-49
2021/03/10 00:31:02;;;;;;;109.27;40.95;;;;;;;-8.05;73.62;101400.77;1766117;78;21257;-49
2021/03/10 00:33:30;;;;;;;98.45;38.78;;;;;;;-8.03;73.40;101405.50;1804772;78;21176;-49
2021/03/10 00:35:59;;;;;;;112.12;43.92;;;;;;;-7.99;73.26;101398.70;1803658;78;20977;-49
2021/03/10 00:38:26;;;;;;;105.47;43.55;;;;;;;-7.99;72.96;101394.84;1785574;80;21616;-49
2021/03/10 00:40:54;;;;;;;97.10;38.67;;;;;;;-8.00;72.80;101395.25;1786445;80;22399;-49
2021/03/10 00:43:22;;;;;;;110.57;42.67;;;;;;;-8.02;72.74;101390.52;1786126;80;21149;-49
2021/03/10 00:45:51;;;;;;;105.45;40.48;;;;;;;-8.02;72.80;101397.83;1814922;78;21027;-49
2021/03/10 00:48:19;;;;;;;101.38;38.90;;;;;;;-8.00;72.85;101391.41;1815071;78;21113;-49
2021/03/10 00:50:49;;;;;;;106.00;39.58;;;;;;;-7.98;72.79;101392.72;1815361;78;21129;-49
2021/03/10 00:53:20;;;;;;;93.90;34.83;;;;;;;-7.97;72.77;101398.30;1814113;78;21964;-49
2021/03/10 00:55:49;;;;;;;93.62;35.00;;;;;;;-8.03;72.48;101392.66;1785112;78;21133;-49
2021/03/10 00:58:17;;;;;;;97.92;38.48;;;;;;;-8.12;72.26;101387.41;1774178;80;21136;-50
2021/03/10 01:00:45;;;;;;;104.00;40.40;;;;;;;-8.23;72.28;101389.44;1815161;78;21129;-49
2021/03/10 01:03:13;;;;;;;96.82;40.67;;;;;;;-8.30;72.64;101390.20;1808248;78;20991;-49
2021/03/10 01:05:43;;;;;;;93.67;39.20;;;;;;;-8.27;73.06;101395.38;1807277;78;21829;-49
2021/03/10 01:08:12;;;;;;;101.40;39.80;;;;;;;-8.21;73.12;101390.31;1811258;78;21436;-49
2021/03/10 01:10:40;;;;;;;89.20;37.58;;;;;;;-8.17;72.97;101391.23;1814266;78;20971;-49
2021/03/10 01:13:08;;;;;;;102.97;41.10;;;;;;;-8.21;72.43;101389.03;1811522;78;20967;-49
2021/03/10 01:15:37;;;;;;;90.05;35.40;;;;;;;-8.31;72.26;101385.91;1787344;79;21103;-49
2021/03/10 01:18:05;;;;;;;90.83;36.60;;;;;;;-8.36;72.55;101383.70;1787528;79;21606;-49
2021/03/10 01:20:33;;;;;;;75.87;31.65;;;;;;;-8.45;72.33;101388.32;1787643;79;21146;-50
2021/03/10 01:23:01;;;;;;;76.45;31.60;;;;;;;-8.52;72.61;101383.98;1787369;79;21004;-49
2021/03/10 01:25:30;;;;;;;92.75;38.25;;;;;;;-8.61;72.84;101388.59;1787375;79;21528;-49
2021/03/10 01:27:58;;;;;;;92.92;36.80;;;;;;;-8.65;73.20;101389.39;1787890;78;20969;-50
2021/03/10 01:30:26;;;;;;;78.65;34.38;;;;;;;-8.62;73.55;101386.42;1787879;79;22643;-49
2021/03/10 01:32:56;;;;;;;85.87;36.58;;;;;;;-8.64;73.35;101387.27;1787416;79;21143;-49
2021/03/10 01:35:24;;;;;;;79.00;34.15;;;;;;;-8.68;73.52;101391.48;1787342;79;20985;-49
2021/03/10 01:37:52;;;;;;;79.58;31.70;;;;;;;-8.69;73.78;101392.32;1787556;79;21859;-49
2021/03/10 01:40:23;;;;;;;79.60;31.70;;;;;;;-8.62;73.97;101389.44;1786511;78;21103;-49
2021/03/10 01:42:51;;;;;;;76.75;31.68;;;;;;;-8.53;73.98;101389.95;1787486;79;21564;-50
2021/03/10 01:45:21;;;;;;;80.57;31.40;;;;;;;-8.42;73.83;101392.21;1787701;79;21836;-49
2021/03/10 01:47:50;;;;;;;82.35;34.67;;;;;;;-8.35;73.62;101390.56;1787323;78;21017;-49
2021/03/10 01:50:18;;;;;;;78.37;32.35;;;;;;;-8.30;73.29;101387.63;1787316;79;21131;-49
2021/03/10 01:52:46;;;;;;;82.55;31.57;;;;;;;-8.33;72.86;101388.47;1787347;78;21111;-49
2021/03/10 01:55:15;;;;;;;72.10;25.68;;;;;;;-8.42;72.59;101392.62;1795562;77;21597;-49
2021/03/10 01:57:43;;;;;;;88.10;35.30;;;;;;;-8.52;72.78;101400.27;1814867;78;22039;-49
2021/03/10 02:00:12;;;;;;;95.07;37.45;;;;;;;-8.61;72.95;101397.14;1787452;79;21552;-49
2021/03/10 02:02:40;;;;;;;87.17;36.25;;;;;;;-8.62;73.26;101395.84;1785533;80;21141;-49
2021/03/10 02:05:09;;;;;;;94.92;35.43;;;;;;;-8.62;73.46;101398.42;1785313;80;20996;-49
2021/03/10 02:08:09;;;;;;;90.15;35.25;;;;;;;-8.64;73.53;101402.23;1785730;80;21200;-49
2021/03/10 02:11:23;;;;;;;79.90;31.33;;;;;;;-8.68;73.37;101402.18;1785239;80;21135;-49
2021/03/10 02:14:24;;;;;;;77.67;29.77;;;;;;;-8.78;73.79;101396.92;1758024;81;21018;-49
2021/03/10 02:16:57;;;;;;;80.40;30.88;;;;;;;-8.81;74.48;101404.58;1785696;80;21541;-50
2021/03/10 02:19:49;;;;;;;84.22;32.17;;;;;;;-8.80;74.92;101400.28;1785423;80;20963;-49
2021/03/10 02:22:55;;;;;;;96.00;36.00;;;;;;;-8.79;75.12;101404.58;1785377;80;21203;-49
2021/03/10 02:25:54;;;;;;;102.53;38.33;;;;;;;-8.79;75.17;101402.02;1757800;81;21152;-49
2021/03/10 02:28:22;;;;;;;101.20;40.45;;;;;;;-8.82;75.20;101400.28;1757919;81;21620;-49
2021/03/10 02:30:51;;;;;;;115.62;44.70;;;;;;;-8.82;75.20;101397.72;1762530;79;21141;-49
2021/03/10 02:33:22;;;;;;;96.95;38.05;;;;;;;-8.81;75.17;101392.15;1787303;79;21161;-49
2021/03/10 02:36:00;;;;;;;98.95;33.28;;;;;;;-8.79;75.08;101393.91;1789085;79;21277;-49
2021/03/10 02:38:27;;;;;;;105.80;36.73;;;;;;;-8.78;74.97;101398.61;1790134;78;20999;-49
2021/03/10 02:40:56;;;;;;;86.92;34.00;;;;;;;-8.84;74.93;101395.55;1808247;78;21101;-49
2021/03/10 02:43:24;;;;;;;84.20;31.57;;;;;;;-8.86;74.93;101398.52;1811026;78;21567;-49
2021/03/10 02:45:54;;;;;;;91.55;37.05;;;;;;;-8.85;74.89;101395.11;1782596;79;21137;-50
2021/03/10 02:48:24;;;;;;;88.33;35.95;;;;;;;-8.87;74.88;101398.07;1800944;78;22074;-49
2021/03/10 02:50:54;;;;;;;87.50;34.92;;;;;;;-8.82;74.83;101403.25;1789037;79;21148;-49
2021/03/10 02:53:22;;;;;;;85.42;30.62;;;;;;;-8.76;74.59;101396.92;1818013;78;21500;-49
2021/03/10 02:55:50;;;;;;;75.60;30.57;;;;;;;-8.71;74.24;101405.55;1807489;78;21560;-49
2021/03/10 02:58:18;;;;;;;65.62;25.65;;;;;;;-8.72;73.93;101399.13;1766497;79;21093;-49
2021/03/10 03:00:46;;;;;;;65.35;24.57;;;;;;;-8.78;73.83;101399.48;1764397;80;21424;-49
2021/03/10 03:03:13;;;;;;;81.02;30.30;;;;;;;-8.84;73.76;101401.09;1747772;79;20969;-49
2021/03/10 03:05:41;;;;;;;57.33;23.35;;;;;;;-8.88;73.79;101399.31;1751274;80;20978;-49
2021/03/10 03:08:09;;;;;;;69.77;28.80;;;;;;;-8.87;73.87;101396.79;1787808;79;21097;-49
2021/03/10 03:10:38;;;;;;;74.07;30.77;;;;;;;-8.88;73.93;101395.06;1744389;80;22030;-49
2021/03/10 03:13:09;;;;;;;78.28;32.85;;;;;;;-8.86;74.03;101402.77;1765215;80;21257;-49
2021/03/10 03:15:38;;;;;;;84.00;31.73;;;;;;;-8.79;73.94;101397.76;1750883;80;21189;-49
2021/03/10 03:18:06;;;;;;;83.90;31.25;;;;;;;-8.66;73.80;101404.35;1768289;80;21122;-49
2021/03/10 03:20:34;;;;;;;90.92;36.25;;;;;;;-8.56;73.55;101402.75;1768333;80;21133;-49
2021/03/10 03:23:04;;;;;;;82.45;33.80;;;;;;;-8.53;73.19;101406.24;1768225;80;21126;-53
2021/03/10 03:25:38;;;;;;;95.83;36.33;;;;;;;-8.49;72.87;101400.30;1768165;80;21011;-49
2021/03/10 03:28:08;;;;;;;101.25;37.10;;;;;;;-8.49;72.57;101408.41;1768301;80;20991;-49
2021/03/10 03:30:37;;;;;;;101.75;39.58;;;;;;;-8.52;72.44;101411.81;1709414;80;21130;-49
2021/03/10 03:33:18;;;;;;;106.55;40.03;;;;;;;-8.55;72.41;101411.78;1768235;80;21118;-49
2021/03/10 03:35:47;;;;;;;111.97;41.13;;;;;;;-8.56;72.36;101408.77;1768241;80;21997;-49
2021/03/10 03:38:15;;;;;;;107.05;40.63;;;;;;;-8.46;72.26;101407.98;1768225;80;22347;-49
2021/03/10 03:40:42;;;;;;;82.08;33.95;;;;;;;-8.35;71.80;101409.83;1746675;80;21649;-49
2021/03/10 03:43:11;;;;;;;79.72;31.95;;;;;;;-8.36;71.10;101413.23;1768430;80;21162;-49
2021/03/10 03:45:39;;;;;;;77.25;31.27;;;;;;;-8.40;70.95;101409.78;1768135;80;21610;-49
2021/03/10 03:48:07;;;;;;;78.92;31.15;;;;;;;-8.41;70.56;101410.63;1768420;80;21149;-49
2021/03/10 03:50:36;;;;;;;78.50;30.00;;;;;;;-8.47;70.38;101408.83;1768196;80;21533;-49
2021/03/10 03:53:03;;;;;;;70.52;27.93;;;;;;;-8.48;70.27;101415.23;1768015;80;22083;-49
2021/03/10 03:55:31;;;;;;;73.02;28.85;;;;;;;-8.54;70.15;101411.34;1768172;80;21593;-49
2021/03/10 03:57:59;;;;;;;77.27;29.92;;;;;;;-8.56;70.20;101403.63;1768162;80;21121;-49
2021/03/10 04:00:27;;;;;;;75.72;30.20;;;;;;;-8.46;70.47;101408.42;1764088;80;22141;-49
2021/03/10 04:02:57;;;;;;;70.00;27.62;;;;;;;-8.42;70.20;101414.44;1767921;78;21240;-49
2021/03/10 04:05:31;;;;;;;68.42;28.35;;;;;;;-8.43;69.93;101411.44;1766527;80;21140;-49
2021/03/10 04:08:01;;;;;;;75.90;29.60;;;;;;;-8.45;69.86;101411.43;1764667;78;21001;-48
2021/03/10 04:10:33;;;;;;;74.75;29.77;;;;;;;-8.35;70.01;101412.39;1766272;80;22180;-49
2021/03/10 04:13:01;;;;;;;84.22;32.83;;;;;;;-8.25;69.96;101411.67;1765970;79;21119;-49
2021/03/10 04:15:31;;;;;;;81.35;32.00;;;;;;;-8.14;69.85;101411.81;1766310;80;21943;-49
2021/03/10 04:17:59;;;;;;;80.50;29.90;;;;;;;-8.04;69.71;101412.77;1766307;80;21156;-49
2021/03/10 04:20:27;;;;;;;74.77;31.10;;;;;;;-7.96;69.48;101412.87;1766258;78;21133;-49
2021/03/10 04:22:57;;;;;;;67.87;28.98;;;;;;;-7.87;69.40;101416.39;1765600;80;21115;-49
2021/03/10 04:25:28;;;;;;;64.27;25.82;;;;;;;-7.90;68.90;101411.62;1765941;80;21431;-49
2021/03/10 04:27:56;;;;;;;58.30;22.90;;;;;;;-8.12;68.74;101410.53;1766236;78;21644;-49
2021/03/10 04:30:24;;;;;;;57.78;23.85;;;;;;;-8.42;68.87;101416.61;1766026;80;21222;-49
2021/03/10 04:32:52;;;;;;;75.00;28.40;;;;;;;-8.69;69.40;101420.98;1766170;80;21017;-49
2021/03/10 04:35:21;;;;;;;74.32;28.90;;;;;;;-8.85;70.37;101414.34;1766099;78;21404;-49
2021/03/10 04:37:49;;;;;;;75.92;30.02;;;;;;;-8.90;71.10;101417.27;1766130;78;21545;-49
2021/03/10 04:40:18;;;;;;;65.42;28.02;;;;;;;-8.83;71.78;101414.36;1748025;78;22233;-49
2021/03/10 04:42:47;;;;;;;76.05;29.82;;;;;;;-8.60;72.54;101419.84;1766135;80;22096;-49
2021/03/10 04:45:15;;;;;;;63.65;26.30;;;;;;;-8.29;73.14;101421.46;1766318;80;21532;-49
2021/03/10 04:47:44;;;;;;;61.88;26.95;;;;;;;-7.90;73.55;101425.35;1766388;80;21952;-49
2021/03/10 04:50:14;;;;;;;62.95;24.75;;;;;;;-7.47;73.52;101422.34;1766284;80;21763;-49
2021/03/10 04:52:43;;;;;;;69.30;26.93;;;;;;;-6.67;72.12;101416.05;1766608;80;21190;-49
2021/03/10 04:55:12;;;;;;;66.12;26.15;;;;;;;-6.67;72.12;101416.05;1766424;80;21660;-49
2021/03/10 04:57:40;;;;;;;58.13;23.42;;;;;;;-6.69;70.14;101421.21;1766200;78;21132;-49
2021/03/10 05:00:09;;;;;;;63.17;25.08;;;;;;;-6.86;69.68;101421.09;1782328;78;21125;-49
2021/03/10 05:02:38;;;;;;;61.50;25.80;;;;;;;-6.76;71.12;101420.73;1805618;78;21153;-49
2021/03/10 05:05:08;;;;;;;73.72;29.72;;;;;;;-6.43;71.54;101423.08;1768490;79;21331;-49
2021/03/10 05:07:37;;;;;;;65.85;27.37;;;;;;;-6.28;69.75;101422.69;1796600;78;21424;-49
2021/03/10 05:10:08;;;;;;;63.25;26.25;;;;;;;-6.28;69.15;101423.56;1800458;78;21133;-49
2021/03/10 05:12:36;;;;;;;66.07;25.97;;;;;;;-6.25;69.11;101425.27;1787939;78;21548;-49
2021/03/10 05:15:05;;;;;;;68.75;27.05;;;;;;;-6.13;69.24;101427.06;1811586;78;21309;-49
2021/03/10 05:17:33;;;;;;;64.65;26.48;;;;;;;-5.95;69.14;101430.08;1766383;80;22110;-49
2021/03/10 05:20:04;;;;;;;64.17;26.05;;;;;;;-5.74;70.12;101430.56;1782557;78;21936;-50
2021/03/10 05:22:32;;;;;;;66.02;26.30;;;;;;;-5.32;70.80;101425.48;1782319;78;21126;-49
2021/03/10 05:25:00;;;;;;;63.17;26.48;;;;;;;-4.96;68.08;101430.63;1780296;78;21144;-48
2021/03/10 05:27:31;;;;;;;71.55;26.05;;;;;;;-4.87;67.01;101430.63;1780489;78;21781;-49
2021/03/10 05:30:00;;;;;;;57.53;24.05;;;;;;;-4.91;66.00;101429.75;1780648;78;21202;-49
2021/03/10 05:32:29;;;;;;;60.33;24.47;;;;;;;-4.94;66.04;101428.91;1780575;78;21149;-49
2021/03/10 05:34:58;;;;;;;63.02;24.77;;;;;;;-4.86;66.32;101428.47;1780768;78;21396;-49
2021/03/10 05:37:26;;;;;;;62.70;26.20;;;;;;;-4.67;66.04;101434.45;1777364;78;22124;-49
2021/03/10 05:39:54;;;;;;;61.15;24.15;;;;;;;-4.55;65.65;101436.59;1788473;78;21580;-49
2021/03/10 05:42:21;;;;;;;61.70;24.87;;;;;;;-4.40;65.28;101443.43;1797541;78;21388;-49
2021/03/10 05:44:50;;;;;;;62.10;23.45;;;;;;;-4.32;65.52;101445.56;1790674;78;21522;-49
2021/03/10 05:47:19;;;;;;;61.63;24.40;;;;;;;-3.90;67.25;101450.14;1794262;78;21715;-49
2021/03/10 05:49:48;;;;;;;53.00;22.82;;;;;;;-3.27;64.86;101454.51;1800038;78;21479;-49
2021/03/10 05:52:17;;;;;;;58.78;22.67;;;;;;;-3.15;63.56;101451.80;1810887;78;22055;-49
2021/03/10 05:54:45;;;;;;;47.27;21.50;;;;;;;-3.09;63.27;101452.20;1799286;78;21378;-49
2021/03/10 05:57:13;;;;;;;51.28;22.62;;;;;;;-2.80;63.44;101450.22;1777810;78;21137;-49
2021/03/10 05:59:41;;;;;;;50.73;21.37;;;;;;;-2.43;62.89;101457.64;1783150;78;21134;-49
2021/03/10 06:02:09;;;;;;;51.95;22.77;;;;;;;-2.19;60.67;101456.95;1782574;78;21121;-49
2021/03/10 06:04:41;;;;;;;49.40;21.75;;;;;;;-2.17;60.48;101461.67;1781344;78;22017;-49
2021/03/10 06:07:23;;;;;;;49.80;22.32;;;;;;;-2.01;61.43;101468.38;1782589;78;21389;-49
2021/03/10 06:10:04;;;;;;;43.50;20.02;;;;;;;-1.70;61.07;101460.20;1779569;78;20995;-49
2021/03/10 06:12:43;;;;;;;43.33;18.23;;;;;;;-1.41;59.51;101463.25;1780126;80;21821;-49
2021/03/10 06:15:13;;;;;;;42.95;19.15;;;;;;;-1.27;58.04;101463.90;1778192;78;21571;-49
2021/03/10 06:17:47;;;;;;;49.05;22.55;;;;;;;-0.95;58.59;101464.26;1779070;78;21133;-49
2021/03/10 06:20:28;;;;;;;43.17;19.20;;;;;;;-0.71;56.52;101460.83;1793641;78;21281;-49
2021/03/10 06:22:56;;;;;;;55.00;19.80;;;;;;;-0.72;56.25;101467.78;1777003;78;21730;-49
2021/03/10 06:25:36;;;;;;;39.15;18.20;;;;;;;-0.45;57.80;101472.92;1783110;78;21110;-47
2021/03/10 06:28:05;;;;;;;35.98;16.62;;;;;;;-0.19;56.09;101471.56;1778406;78;21549;-47
2021/03/10 06:30:37;;;;;;;35.90;15.20;;;;;;;0.04;54.22;101472.83;1779057;78;21109;-47
2021/03/10 06:33:06;;;;;;;31.73;14.43;;;;;;;0.12;54.85;101469.62;1777287;78;21610;-47
2021/03/10 06:35:35;;;;;;;31.30;13.40;;;;;;;0.40;55.12;101473.40;1786452;78;21152;-48
2021/03/10 06:38:13;;;;;;;32.53;12.80;;;;;;;0.69;54.50;101480.55;1774686;78;21131;-47
2021/03/10 06:40:57;;;;;;;33.23;12.05;;;;;;;0.96;52.31;101472.09;1838479;76;22843;-47
2021/03/10 06:43:41;;;;;;;39.85;13.38;;;;;;;0.98;51.01;101475.52;1824874;77;21066;-47
2021/03/10 06:46:16;;;;;;;27.32;9.48;;;;;;;0.83;50.66;101475.00;1825971;77;21433;-48
2021/03/10 06:48:59;;;;;;;35.28;10.28;;;;;;;0.81;48.99;101474.64;1846650;75;22541;-49
2021/03/10 06:51:29;;;;;;;26.62;10.18;;;;;;;0.71;48.85;101477.45;1802372;77;21193;-48
2021/03/10 06:53:57;;;;;;;39.08;11.97;;;;;;;0.50;48.22;101473.61;1809155;77;22272;-49
2021/03/10 06:56:27;;;;;;;46.00;12.60;;;;;;;0.33;47.42;101468.75;1812865;77;21423;-48
2021/03/10 06:59:03;;;;;;;52.98;13.78;;;;;;;0.25;47.81;101474.14;1741155;80;21467;-49
2021/03/10 07:01:41;;;;;;;43.70;12.60;;;;;;;0.28;46.02;101474.50;1743937;80;21367;-49
2021/03/10 07:04:13;;;;;;;40.28;12.78;;;;;;;0.21;46.88;101475.52;1768836;79;21122;-48
2021/03/10 07:06:40;;;;;;;;;;;;;;;0.20;46.89;101472.08;1771190;78;21526;-48
2021/03/10 07:09:13;;;;;;;30.45;11.83;;;;;;;0.31;46.50;101475.74;1755122;80;20947;-48
2021/03/10 07:11:45;;;;;;;36.95;13.22;;;;;;;0.31;44.96;101472.30;1774457;79;21829;-48
2021/03/10 07:14:13;;;;;;;32.93;12.75;;;;;;;0.27;46.00;101476.27;1762861;79;21174;-49
2021/03/10 07:16:41;;;;;;;34.88;12.55;;;;;;;0.37;45.09;101470.86;1774969;80;21243;-48
2021/03/10 07:19:10;;;;;;;28.77;12.18;;;;;;;0.36;43.96;101479.10;1777630;79;21206;-48
2021/03/10 07:21:51;;;;;;;22.60;10.13;;;;;;;0.23;43.94;101477.66;1767563;79;22141;-48
2021/03/10 07:24:22;;;;;;;21.60;9.05;;;;;;;0.22;44.28;101477.23;1770873;79;21158;-48
2021/03/10 07:27:03;;;;;;;37.90;11.03;;;;;;;0.24;43.34;101472.86;1779942;77;21315;31
2021/03/10 07:29:39;;;;;;;24.00;8.30;;;;;;;0.18;43.42;101470.38;1782792;77;21133;31
2021/03/10 07:38:01;;;;;;;22.32;8.88;;;;;;;0.03;42.44;101465.91;1711019;79;21158;-47
2021/03/10 07:46:55;;;;;;;27.42;10.43;;;;;;;0.61;44.02;101460.32;1798960;76;21224;31
2021/03/10 07:49:24;;;;;;;31.05;10.85;;;;;;;1.40;44.11;101454.91;1808967;76;21136;-47
2021/03/10 08:01:26;;;;;;;14.93;6.62;;;;;;;1.90;40.07;101461.80;1749839;79;21357;-47
2021/03/10 08:03:54;;;;;;;22.17;7.28;;;;;;;1.77;40.08;101460.43;1785943;75;21145;-45
2021/03/10 08:06:42;;;;;;;14.68;5.17;;;;;;;1.94;39.86;101462.55;1796040;76;21069;31
2021/03/10 08:09:18;;;;;;;15.05;5.72;;;;;;;1.98;39.50;101459.42;1787351;75;21138;31
2021/03/10 08:12:08;;;;;;;10.25;4.80;;;;;;;1.82;38.14;101458.55;1799897;77;21267;31
2021/03/10 08:14:44;;;;;;;10.08;4.85;;;;;;;1.60;38.28;101451.31;1795140;77;21395;31
2021/03/10 08:23:30;;;;;;;11.22;4.58;;;;;;;2.13;39.64;101453.72;1754232;79;20957;-46
2021/03/10 08:25:58;;;;;;;7.53;4.53;;;;;;;2.45;38.79;101453.20;1779807;79;21160;-47
2021/03/10 08:28:33;;;;;;;10.60;4.15;;;;;;;2.64;38.19;101449.58;1794469;78;21865;-47
2021/03/10 08:31:04;;;;;;;8.33;4.58;;;;;;;2.90;37.63;101447.86;1752437;80;21177;-48
2021/03/10 08:33:51;;;;;;;12.65;5.17;;;;;;;3.17;37.81;101443.09;1788574;78;21524;-47
2021/03/10 08:36:33;;;;;;;9.75;4.72;;;;;;;3.28;36.45;101444.85;1749549;80;21667;-47
2021/03/10 08:39:13;;;;;;;12.45;5.28;;;;;;;3.32;36.96;101440.37;1786713;78;21331;-47
2021/03/10 08:41:50;;;;;;;11.85;6.05;;;;;;;3.48;36.15;101441.99;1742999;80;21863;-47
2021/03/10 08:44:21;;;;;;;18.40;6.00;;;;;;;3.45;34.60;101444.28;1750249;80;21168;-47
2021/03/10 08:46:55;;;;;;;14.43;5.78;;;;;;;3.00;35.16;101443.63;1759210;79;21145;-47
2021/03/10 08:49:26;;;;;;;16.45;5.78;;;;;;;2.47;35.52;101447.48;1778925;79;21104;-48
2021/03/10 08:52:10;;;;;;;13.62;6.20;;;;;;;2.33;37.55;101432.67;1783552;78;22030;-48
2021/03/10 08:55:00;;;;;;;12.25;5.65;;;;;;;2.33;37.55;101432.67;1745217;80;21930;-47
2021/03/10 08:57:34;;;;;;;8.73;5.00;;;;;;;2.54;36.80;101439.02;1781548;78;21843;-47
2021/03/10 09:00:16;;;;;;;15.85;5.92;;;;;;;2.82;36.54;101433.34;1784975;78;21112;-48
2021/03/10 09:02:48;;;;;;;22.60;6.92;;;;;;;2.90;34.08;101432.16;1776656;78;21147;-47
2021/03/10 09:05:40;;;;;;;11.93;5.30;;;;;;;2.57;35.37;101428.46;1769069;76;21268;31
2021/03/10 09:14:01;;;;;;;13.05;6.20;;;;;;;3.09;36.75;101433.73;1734068;78;21175;-48
2021/03/10 09:16:55;;;;;;;17.55;6.58;;;;;;;3.52;36.43;101431.38;1800562;77;22875;-47
2021/03/10 09:22:48;;;;;;;13.75;5.83;;;;;;;4.20;35.44;101437.19;1732756;77;21133;-47
2021/03/10 09:25:23;;;;;;;10.80;6.08;;;;;;;4.41;32.92;101432.00;1729769;78;21136;-48
2021/03/10 09:28:11;;;;;;;16.25;7.03;;;;;;;4.27;32.84;101436.48;1799461;76;21101;31
2021/03/10 09:33:40;;;;;;;12.85;5.80;;;;;;;3.98;33.18;101422.28;1759425;79;21520;-48
2021/03/10 09:36:09;;;;;;;13.65;7.22;;;;;;;3.78;33.45;101421.70;1750456;81;21457;-48
2021/03/10 09:38:42;;;;;;;14.38;6.95;;;;;;;3.68;32.89;101422.97;1731284;78;21120;-46
2021/03/10 09:54:04;;;;;;;12.63;6.62;;;;;;;2.96;33.58;101423.28;1757217;77;21997;-47
2021/03/10 10:02:45;;;;;;;11.65;6.60;;;;;;;2.73;33.70;101422.27;1738234;79;21276;-47
2021/03/10 10:05:21;;;;;;;13.03;6.92;;;;;;;2.52;35.32;101421.22;1719751;78;21800;-48
2021/03/10 10:07:50;;;;;;;12.05;6.15;;;;;;;2.76;36.11;101420.87;1723933;77;21623;-48
2021/03/10 10:10:22;;;;;;;12.00;6.60;;;;;;;3.14;36.28;101420.95;1737639;76;21215;31
2021/03/10 10:12:54;;;;;;;11.18;6.55;;;;;;;3.48;34.82;101423.67;1742934;78;21677;-47
2021/03/10 10:19:16;;;;;;;11.63;6.37;;;;;;;3.94;33.79;101419.38;1767584;77;21099;31
2021/03/10 10:21:47;;;;;;;9.65;6.22;;;;;;;3.81;33.35;101409.80;1767983;78;21386;-47
2021/03/10 10:24:16;;;;;;;10.53;6.25;;;;;;;3.76;34.01;101415.66;1736024;78;21149;31
2021/03/10 10:29:55;;;;;;;10.58;6.28;;;;;;;4.14;33.98;101412.05;1739927;77;21085;31
2021/03/10 10:32:31;;;;;;;14.00;5.75;;;;;;;4.42;33.24;101408.36;1778058;76;22290;31
2021/03/10 10:35:00;;;;;;;15.80;5.62;;;;;;;4.49;32.82;101401.55;1814405;75;21566;-46
2021/03/10 10:40:57;;;;;;;14.38;5.90;;;;;;;4.55;32.35;101398.21;1764381;77;21106;31
2021/03/10 10:43:34;;;;;;;13.88;6.28;;;;;;;4.37;31.79;101393.70;1772573;78;21305;31
2021/03/10 10:46:00;;;;;;;10.45;5.45;;;;;;;3.82;31.87;101397.56;1773995;77;21126;-47
2021/03/10 10:58:26;;;;;;;10.68;5.10;;;;;;;2.99;32.60;101386.55;1801382;76;21093;31
2021/03/10 11:00:54;;;;;;;10.60;5.40;;;;;;;2.49;32.86;101380.33;1772649;76;21258;-47
2021/03/10 11:03:23;;;;;;;11.48;5.10;;;;;;;2.41;33.93;101372.35;1836454;75;21263;-47
2021/03/10 11:06:15;;;;;;;14.23;5.70;;;;;;;2.55;34.55;101366.23;1758255;77;21580;-47
2021/03/10 11:12:01;;;;;;;12.73;5.55;;;;;;;3.12;33.87;101371.28;1682489;78;21983;-47
2021/03/10 11:14:31;;;;;;;12.88;6.12;;;;;;;3.33;33.59;101372.27;1790216;75;21285;-47
2021/03/10 11:17:01;;;;;;;17.00;5.85;;;;;;;3.14;32.57;101374.70;1791455;75;22064;-47
2021/03/10 11:26:15;;;;;;;17.02;6.22;;;;;;;2.68;33.77;101364.48;1767503;77;21263;31
2021/03/10 11:32:08;;;;;;;13.00;5.62;;;;;;;1.96;35.17;101368.05;1804467;75;21129;31
2021/03/10 11:38:23;;;;;;;14.73;6.80;;;;;;;2.12;34.92;101355.36;1834229;75;21119;31
2021/03/10 11:44:12;;;;;;;11.45;4.62;;;;;;;2.70;36.02;101350.47;1837687;75;20225;31
2021/03/10 11:52:46;;;;;;;13.00;6.03;;;;;;;3.67;33.25;101342.23;1807009;76;21237;31
2021/03/10 11:55:15;;;;;;;12.75;6.00;;;;;;;3.56;33.59;101337.02;1798042;76;21114;-46
2021/03/10 11:57:44;;;;;;;10.15;5.70;;;;;;;3.63;33.64;101331.48;1779305;77;21262;-46
2021/03/10 12:00:14;;;;;;;13.62;6.12;;;;;;;3.66;32.43;101335.29;1769624;77;22062;-46
2021/03/10 12:06:15;;;;;;;13.78;5.83;;;;;;;3.05;33.37;101328.80;1763377;77;21261;31
2021/03/10 12:08:43;;;;;;;;;;;;;;;2.84;33.10;101325.63;1765442;78;21114;-48
2021/03/10 12:11:15;;;;;;;8.80;5.03;;;;;;;2.68;33.13;101314.38;1793480;77;20336;-46
2021/03/10 12:16:59;;;;;;;10.55;5.60;;;;;;;2.71;33.50;101315.58;1779523;77;22160;-48
2021/03/10 12:19:35;;;;;;;12.28;5.78;;;;;;;2.90;33.25;101316.25;1780149;77;21260;31
2021/03/10 12:27:59;;;;;;;14.10;5.37;;;;;;;2.90;33.38;101314.48;1786873;77;21278;-46
2021/03/10 12:30:29;;;;;;;13.05;5.65;;;;;;;2.71;33.12;101309.48;1796339;77;21144;-46
2021/03/10 12:32:57;;;;;;;9.60;5.35;;;;;;;2.67;33.16;101310.05;1810353;76;21138;-46
2021/03/10 12:35:27;;;;;;;15.00;6.83;;;;;;;2.61;32.88;101305.91;1793616;77;21110;-47
2021/03/10 12:37:56;;;;;;;15.75;6.08;;;;;;;2.53;34.01;101301.82;1813105;75;21256;-47
2021/03/10 12:40:25;;;;;;;14.28;5.37;;;;;;;2.38;33.64;101293.59;1819403;75;21765;-47
2021/03/10 12:42:53;;;;;;;16.82;8.30;;;;;;;2.30;33.98;101304.30;1816485;75;21130;-47
2021/03/10 12:45:32;;;;;;;13.75;6.20;;;;;;;2.31;33.98;101293.39;1810121;75;21251;31
2021/03/10 12:48:02;;;;;;;13.62;6.33;;;;;;;2.35;34.15;101290.64;1811174;75;21113;31
2021/03/10 12:50:31;;;;;;;8.70;4.90;;;;;;;2.30;33.63;101279.92;1782345;76;21268;-47
2021/03/10 12:56:08;;;;;;;12.70;5.70;;;;;;;2.33;34.78;101291.14;1779508;77;21034;-47
2021/03/10 12:58:40;;;;;;;15.85;5.87;;;;;;;2.48;34.98;101295.46;1803667;75;21078;31
2021/03/10 13:07:52;;;;;;;13.00;6.33;;;;;;;2.48;34.25;101293.69;1742726;76;22117;-47
2021/03/10 13:10:21;;;;;;;13.32;6.12;;;;;;;2.44;34.87;101295.16;1733594;80;21070;-47
2021/03/10 13:12:50;;;;;;;8.55;5.20;;;;;;;2.59;35.06;101299.00;1766990;76;21594;-47
2021/03/10 13:15:28;;;;;;;12.47;5.85;;;;;;;2.78;34.97;101289.62;1741108;76;21119;-47
2021/03/10 13:21:46;;;;;;;14.38;6.28;;;;;;;2.86;33.34;101294.57;1797242;76;21775;31
2021/03/10 13:27:14;;;;;;;11.95;5.50;;;;;;;2.21;33.63;101286.31;1771859;76;21164;-48
2021/03/10 13:36:18;;;;;;;15.90;6.55;;;;;;;2.28;33.86;101288.27;1798489;76;22029;31
2021/03/10 13:41:44;;;;;;;16.67;6.65;;;;;;;1.95;34.67;101278.86;1772147;79;21968;-47
2021/03/10 13:44:14;;;;;;;13.65;6.30;;;;;;;1.81;35.30;101271.91;1779733;76;21169;-48
2021/03/10 13:46:42;;;;;;;15.70;6.70;;;;;;;1.57;35.70;101280.45;1707977;82;21101;-47
2021/03/10 14:01:24;;;;;;;17.42;5.80;;;;;;;1.18;35.36;101278.98;1820162;75;21117;31
2021/03/10 14:04:17;;;;;;;10.25;6.15;;;;;;;1.20;35.86;101275.01;1802148;76;21872;31
2021/03/10 14:06:45;;;;;;;14.85;5.85;;;;;;;1.14;36.21;101281.70;1808952;76;21643;-48
2021/03/10 14:12:15;;;;;;;13.15;6.17;;;;;;;0.96;36.29;101272.22;1773970;77;21065;31
2021/03/10 14:14:47;;;;;;;14.65;5.72;;;;;;;0.99;36.72;101271.27;1755128;77;21243;31
2021/03/10 14:20:18;;;;;;;13.45;5.25;;;;;;;0.84;36.34;101269.95;1789586;75;21119;31